AirNav   Air Wisconsin Up To $57,000 Bonus
 
 813 users online  

ND73 Peterson Airport
Amenia, North Dakota, USA

GOING TO AMENIA?


FAA INFORMATION EFFECTIVE 01 DECEMBER 2022

Location

FAA Identifier: ND73
Lat/Long: 47-02-53.9130N 097-15-20.3160W
47-02.898550N 097-15.338600W
47.0483092,-97.2556433
(estimated)
Elevation: 999 ft. / 304 m (estimated)
Variation: 06E (1985)
From city: 3 miles NW of AMENIA, ND
Time zone: UTC -6 (UTC -5 during Daylight Saving Time)
Zip code: 58004

Airport Operations

Airport use: Private use. Permission required prior to landing
Activation date: 11/1968
Control tower: no
ARTCC: MINNEAPOLIS CENTER
FSS: GRAND FORKS FLIGHT SERVICE STATION
Attendance: APR-NOV 24 HOURS/DAY
DEC-MARCH (CALL)
Wind indicator: yes
Segmented circle: no

Airport Communications

WX ASOS at FAR (20 nm SE): PHONE 701-298-3877

Nearby radio navigation aids

VOR radial/distance  VOR name  Freq  Var
FARr308/24.2FARGO VOR/DME116.2009E

Airport Services

Runway Information

Runway NW/SE

Dimensions: 2300 x 80 ft. / 701 x 24 m
Surface: turf
RUNWAY NW  RUNWAY SE
Traffic pattern: leftleft
Obstructions: nonetwr, marked and lighted
TWR LCTD 3 MILES NW.

Airport Ownership and Management from official FAA records

Ownership: Privately-owned
Owner: KENNETH PETERSON
AMENIA, ND 58004
Phone 701-347-5426
Manager: KENNETH PETERSON
AMENIA, ND 58004
Phone 701-347-5426

Airport Operational Statistics

Aircraft based on the field: 3
Single engine airplanes: 3
    
Aircraft operations: 1/year
100% local general aviation

Additional Remarks

3 TWRS - 1200 FT AGL 4 MIS TO THE SE.
FOR CD CTC MINNEAPOLIS ARTCC AT 651-463-5588.

Instrument Procedures

There are no published instrument procedures at ND73.

Some nearby airports with instrument procedures:

5N8 - Casselton Robert Miller Regional Airport (12 nm S)
KFAR - Hector International Airport (20 nm SE)
3H4 - Hillsboro Municipal Airport (20 nm NE)
K74 - Robert Odegaard Field Airport (26 nm SE)
KJKJ - Moorhead Municipal Airport/Florence Klingensmith Field (27 nm SE)
 
Loc | Ops | Rwys | IFR | FBO | Links
Com | Nav | Svcs | Stats | Notes

Bismarck Aero Center
AirBoss

 
Area around ND73 (Peterson Airport)
 
Road maps at: MapQuest Bing Google
 
Aerial photo
No photo
 
Sectional chart

 
Airport distance calculator
Flying to Peterson Airport? Find the distance to fly.

From to ND73

Sunrise and sunset
Times for 03-Dec-2022
 Local
(UTC-6)
 Zulu
(UTC)
Morning civil twilight07:2313:23
Sunrise07:5813:58
Sunset16:4022:40
Evening civil twilight17:1523:15

Current date and time
Zulu (UTC)  04-Dec-2022 03:09:27
Local (UTC-6)  03-Dec-2022 21:09:27
 
METAR
KFAR 
19nm E 
040253Z 19010KT 10SM CLR M14/M18 A3014 RMK AO2 SLP234 T11441183 56017
KJKJ 
27nm SE 
040255Z AUTO 19007KT 10SM CLR M12/M17 A3015 RMK AO2 TSNO
KBAC 
32nm W 
040255Z AUTO 29005KT 10SM CLR M15/M17 A3012 RMK AO2
TAF
KFAR 
19nm E 
031722Z 0318/0418 20011KT P6SM BKN080 FM032200 20008KT P6SM SCT100 FM040800 24009KT P6SM FEW250 FM041200 23010KT P6SM FEW250 WS020/29035KT
NOTAMs
Click for the latest NOTAMs
NOTAMs are issued by the DoD/FAA and will open in a separate window not controlled by AirNav.

 

 
 

Would you like to see your business listed on this page?

 If your business provides an interesting product or service to pilots, flight crews, aircraft, or users of the Peterson Airport, you should consider listing it here.  To start the listing process, click on the button below
 
Add a business
 

Other Pages about Peterson Airport

Update a link
 
Copyright © AirNav, LLC. All rights reserved. Privacy Policy  Contact